Time;durP1;ratioP1;P1;durP2;ratioP2;P2;SDS_P1;SDS_P2;PMS_P1;PMS_P2;Temp;Humidity;BMP_temperature;BMP_pressure;BME280_temperature;BME280_humidity;BME280_pressure;Samples;Min_cycle;Max_cycle;Signal;HPM_P1;HPM_P2
2022/05/20 00:09:40;;;;;;;1.88;1.20;;;;;;;20.10;78.92;101868.66;25678955;23;20017;-64
2022/05/20 00:19:41;;;;;;;2.03;1.33;;;;;;;20.08;78.60;101876.03;25679368;23;20075;-64
2022/05/20 00:29:43;;;;;;;2.75;1.30;;;;;;;20.07;78.33;101879.72;25680761;23;20029;-64
2022/05/20 00:39:44;;;;;;;1.65;1.30;;;;;;;20.06;78.09;101874.44;25678766;23;20095;-64
2022/05/20 00:49:49;;;;;;;2.78;1.10;;;;;;;19.89;77.77;101846.09;25681229;23;20016;-64
2022/05/20 00:59:52;;;;;;;;;;;;;;;20.02;77.11;101860.31;25686299;23;20328;-64
2022/05/20 01:09:54;;;;;;;1.95;1.33;;;;;;;20.00;77.05;101878.50;25660131;23;19920;-64
2022/05/20 01:19:56;;;;;;;2.00;1.10;;;;;;;19.98;76.79;101866.97;25685362;23;20351;-64
2022/05/20 01:29:58;;;;;;;3.38;1.58;;;;;;;19.97;76.18;101881.47;25659785;23;20324;-64
2022/05/20 01:39:59;;;;;;;2.20;1.30;;;;;;;19.95;75.85;101878.03;25684810;23;20276;-64
2022/05/20 01:50:05;;;;;;;2.47;1.58;;;;;;;19.88;75.63;101857.84;25685504;23;20040;-64
2022/05/20 02:00:18;;;;;;;2.47;1.40;;;;;;;19.80;75.24;101835.03;25684084;23;20471;-64
2022/05/20 02:10:39;;;;;;;1.15;1.05;;;;;;;19.92;75.17;101856.66;25658752;23;20025;-64
2022/05/20 02:20:44;;;;;;;2.03;1.40;;;;;;;19.86;74.69;101839.91;25656074;23;20308;-64
2022/05/20 02:30:45;;;;;;;1.48;1.17;;;;;;;19.88;74.30;101836.22;25683623;23;20045;-64
2022/05/20 02:40:49;;;;;;;1.90;1.20;;;;;;;19.70;73.93;101796.25;25682174;23;20021;-64
2022/05/20 02:50:51;;;;;;;1.47;1.10;;;;;;;19.85;73.92;101823.84;25684086;23;20079;-64
2022/05/20 03:11:12;;;;;;;3.58;1.42;;;;;;;19.81;73.11;101814.28;25661825;23;20478;-64
2022/05/20 03:21:14;;;;;;;1.85;1.20;;;;;;;19.79;72.87;101822.50;25683913;23;20090;-64
2022/05/20 03:31:15;;;;;;;1.67;1.25;;;;;;;19.77;72.69;101829.88;25682951;23;20096;-64
2022/05/20 03:41:17;;;;;;;1.35;1.20;;;;;;;19.76;72.49;101801.13;25683151;23;20045;-64
2022/05/20 03:51:18;;;;;;;1.30;1.20;;;;;;;19.74;72.33;101813.06;25683254;23;20028;-64
2022/05/20 04:11:41;;;;;;;1.55;1.35;;;;;;;19.71;71.67;101823.16;25683405;23;20352;-64
2022/05/20 04:21:43;;;;;;;1.48;1.10;;;;;;;19.70;71.31;101858.38;25682551;23;20483;-64
2022/05/20 04:31:47;;;;;;;1.27;1.00;;;;;;;19.68;71.33;101869.31;25655946;23;20027;-64
2022/05/20 04:52:09;;;;;;;2.35;1.40;;;;;;;19.66;74.25;101873.13;25685841;23;20310;-62
2022/05/20 05:02:12;;;;;;;3.05;1.30;;;;;;;19.65;73.74;101884.91;25688188;23;20020;-62
2022/05/20 05:12:14;;;;;;;3.08;1.70;;;;;;;19.62;73.41;101859.00;25687375;23;20471;-62
2022/05/20 05:22:15;;;;;;;1.70;1.60;;;;;;;19.63;73.96;101871.50;25685802;23;20471;-62
2022/05/20 05:32:17;;;;;;;2.20;1.80;;;;;;;19.63;73.94;101873.38;25684943;23;20024;-62
2022/05/20 05:42:20;;;;;;;3.08;1.75;;;;;;;19.62;74.11;101868.97;25659542;23;20390;-62
2022/05/20 05:52:22;;;;;;;2.95;1.90;;;;;;;19.64;74.14;101883.19;25658978;23;20025;-62
2022/05/20 06:02:24;;;;;;;2.28;1.63;;;;;;;19.63;73.78;101865.28;25684692;23;20075;-62
2022/05/20 06:12:25;;;;;;;2.33;1.52;;;;;;;19.65;73.56;101872.25;25685067;23;20045;-62
2022/05/20 06:22:27;;;;;;;2.85;1.70;;;;;;;19.66;73.47;101873.97;25686567;23;20119;-61
2022/05/20 06:32:28;;;;;;;2.40;1.90;;;;;;;19.68;72.93;101841.44;25684442;23;20071;-62
2022/05/20 06:42:30;;;;;;;1.55;1.42;;;;;;;19.68;72.02;101846.84;25679994;23;20020;-61
2022/05/20 06:52:32;;;;;;;3.08;1.60;;;;;;;19.68;71.53;101841.44;25623539;23;20028;-62
2022/05/20 07:02:40;;;;;;;2.33;1.50;;;;;;;19.69;71.41;101853.97;25674524;23;20016;-62
2022/05/20 07:12:43;;;;;;;3.58;1.98;;;;;;;19.70;71.50;101842.16;25673822;23;20032;-62
2022/05/20 07:22:45;;;;;;;2.28;1.40;;;;;;;19.73;71.14;101833.81;25672565;23;20029;-62
2022/05/20 07:32:46;;;;;;;2.78;1.50;;;;;;;19.74;70.92;101846.34;25673810;23;20021;-62
2022/05/20 07:42:48;;;;;;;3.10;1.58;;;;;;;19.79;70.64;101833.31;25653197;23;20024;-62
2022/05/20 08:04:52;;;;;;;1.55;1.25;;;;;;;19.86;70.28;101780.47;25653413;23;20074;-62
2022/05/20 08:13:37;;;;;;;1.88;1.50;;;;;;;19.94;70.22;101752.00;25681098;23;20959;-62
2022/05/20 08:23:38;;;;;;;2.15;1.17;;;;;;;20.05;69.89;101751.06;25678974;23;20477;-62
2022/05/20 08:33:40;;;;;;;2.05;1.52;;;;;;;20.11;69.88;101748.72;25677177;23;20017;-62
2022/05/20 08:43:42;;;;;;;1.50;1.17;;;;;;;20.12;69.84;101720.69;25679563;23;20092;-62
2022/05/20 08:53:47;;;;;;;2.17;1.30;;;;;;;20.16;69.84;101733.94;25659440;23;20467;-62
2022/05/20 09:03:49;;;;;;;1.25;1.10;;;;;;;20.11;69.79;101704.63;25668510;23;20032;-62
2022/05/20 09:24:35;;;;;;;1.55;1.20;;;;;;;20.34;69.11;101677.44;25679734;23;20079;-60
2022/05/20 09:34:41;;;;;;;2.85;1.40;;;;;;;20.41;68.20;101654.25;25669769;23;20013;-61
2022/05/20 09:44:45;;;;;;;1.75;1.20;;;;;;;20.46;68.19;101652.00;25673266;23;20020;-61
2022/05/20 09:54:59;;;;;;;2.40;1.40;;;;;;;20.51;67.72;101628.13;25670954;23;20075;-61
2022/05/20 10:05:29;;;;;;;1.77;1.23;;;;;;;20.53;67.30;101595.53;25654044;23;20483;-62
2022/05/20 10:15:43;;;;;;;1.95;1.73;;;;;;;20.54;66.96;101589.13;25648463;23;20028;-62
2022/05/20 10:25:51;;;;;;;2.10;1.50;;;;;;;20.32;66.63;101530.69;25670440;23;20525;-61
2022/05/20 10:36:00;;;;;;;1.20;1.10;;;;;;;20.58;66.16;101564.38;25649966;23;20459;-62
2022/05/20 10:57:00;;;;;;;1.20;1.10;;;;;;;20.66;64.82;101506.00;25674532;23;20020;-62
2022/05/20 11:07:34;;;;;;;1.20;1.10;;;;;;;20.66;64.63;101474.38;25596628;23;20474;-62
2022/05/20 11:17:56;;;;;;;3.67;1.35;;;;;;;20.68;64.01;101456.16;25665227;23;20074;-62
2022/05/20 11:28:08;;;;;;;1.13;0.80;;;;;;;20.70;63.65;101423.56;25664827;23;20029;-62
2022/05/20 11:38:29;;;;;;;2.15;0.82;;;;;;;20.72;64.05;101398.06;25670626;23;20071;-62
2022/05/20 11:48:55;;;;;;;2.15;1.30;;;;;;;20.74;64.35;101362.75;25637801;23;20526;-62
2022/05/20 11:59:03;;;;;;;1.23;0.90;;;;;;;20.76;64.74;101314.78;25674114;23;20025;-62
2022/05/20 12:09:25;;;;;;;2.03;1.05;;;;;;;20.77;67.27;101284.00;25643371;23;20025;-62
2022/05/20 12:29:59;;;;;;;1.58;1.23;;;;;;;20.76;65.95;101266.06;25646949;23;20024;-62
2022/05/20 12:40:01;;;;;;;1.85;1.50;;;;;;;20.77;65.76;101229.03;25670087;23;20352;-62
2022/05/20 12:50:05;;;;;;;1.85;1.75;;;;;;;20.77;65.89;101155.97;25681466;23;20028;-62
2022/05/20 13:00:14;;;;;;;2.10;1.90;;;;;;;20.77;65.96;101155.97;25686401;23;20017;-62
2022/05/20 13:10:31;;;;;;;2.53;2.33;;;;;;;20.75;66.25;101164.25;25661067;23;20802;-62
2022/05/20 13:20:35;;;;;;;2.55;2.35;;;;;;;20.72;65.83;101127.50;25674671;23;20038;-62
2022/05/20 13:30:37;;;;;;;3.27;2.53;;;;;;;20.59;65.83;101078.34;25649104;23;20078;-62
2022/05/20 13:40:41;;;;;;;2.58;2.38;;;;;;;20.69;66.50;101084.53;25674128;23;20024;-63
2022/05/20 13:50:43;;;;;;;3.35;2.47;;;;;;;20.67;68.63;101054.06;25648346;23;20024;-63
2022/05/20 14:00:45;;;;;;;3.85;2.50;;;;;;;20.70;71.15;101015.06;25652684;23;20099;-62
2022/05/20 14:10:50;;;;;;;5.80;2.40;;;;;;;20.69;70.47;101008.78;25646375;23;20347;-63
2022/05/20 14:21:13;;;;;;;2.35;2.15;;;;;;;20.57;71.40;100970.31;25619049;23;20040;-63
2022/05/20 14:31:21;;;;;;;2.67;1.90;;;;;;;20.68;71.06;100969.22;25645080;23;20021;-62
2022/05/20 14:41:26;;;;;;;2.13;1.92;;;;;;;20.67;71.57;100950.44;25672064;23;20021;-63
2022/05/20 14:51:28;;;;;;;2.10;1.90;;;;;;;20.64;71.50;100980.50;25644460;23;20024;-63
2022/05/20 15:01:32;;;;;;;2.08;1.67;;;;;;;20.53;72.54;100927.47;25658259;23;20463;-62
2022/05/20 15:11:35;;;;;;;3.10;1.77;;;;;;;20.66;73.43;100900.91;25656090;23;20024;-63
2022/05/20 15:21:36;;;;;;;3.60;1.85;;;;;;;20.46;75.00;100818.22;25659426;23;20020;-62
2022/05/20 15:42:00;;;;;;;3.70;3.38;;;;;;;20.86;80.55;100908.91;25662783;23;20102;-64
2022/05/20 15:52:02;;;;;;;7.22;5.70;;;;;;;21.13;90.74;100935.00;25662412;23;20017;-61
2022/05/20 16:02:07;;;;;;;6.75;4.07;;;;;;;21.18;90.90;100864.13;25607127;23;20024;-62
2022/05/20 16:12:10;;;;;;;4.15;3.60;;;;;;;21.16;90.23;100866.13;25639076;23;20021;-63
2022/05/20 16:22:12;;;;;;;3.97;2.95;;;;;;;21.09;90.52;100825.34;25635602;23;20052;-64
2022/05/20 16:32:15;;;;;;;5.63;2.70;;;;;;;21.00;88.42;100851.50;25673350;23;20510;-64
2022/05/20 16:42:17;;;;;;;3.80;2.95;;;;;;;20.89;87.73;100849.06;25669845;23;20812;-65
2022/05/20 16:52:19;;;;;;;4.43;2.85;;;;;;;20.90;86.46;100898.59;25671061;23;20463;-65
2022/05/20 17:02:20;;;;;;;3.97;2.45;;;;;;;20.85;86.88;100899.09;25665425;23;20021;-63
2022/05/20 17:12:22;;;;;;;5.03;2.42;;;;;;;20.83;85.15;100937.09;25670025;23;20016;-66
2022/05/20 17:32:43;;;;;;;2.70;2.15;;;;;;;20.73;84.89;100966.91;25668159;23;20024;-66
2022/05/20 17:42:45;;;;;;;3.40;2.10;;;;;;;20.71;85.70;100805.75;25638074;23;20048;-66
2022/05/20 17:52:47;;;;;;;3.67;1.88;;;;;;;20.60;84.67;100860.94;25679213;23;20028;-65
2022/05/20 18:02:49;;;;;;;3.65;1.90;;;;;;;20.67;81.88;100932.34;25679233;23;20130;-64
2022/05/20 18:12:50;;;;;;;1.90;1.65;;;;;;;20.67;82.75;100989.16;25685466;23;20017;-65
2022/05/20 18:22:52;;;;;;;5.03;1.80;;;;;;;20.58;83.28;101033.34;25655026;23;20020;-63
2022/05/20 18:32:54;;;;;;;4.35;1.98;;;;;;;20.61;81.97;101091.72;25626169;23;20021;-63
2022/05/20 18:42:56;;;;;;;3.17;1.77;;;;;;;20.57;84.40;101135.28;25677630;23;20769;-65
2022/05/20 18:52:57;;;;;;;2.70;1.80;;;;;;;20.53;80.93;101146.53;25679709;23;20031;-66
2022/05/20 19:03:43;;;;;;;2.75;1.80;;;;;;;20.50;79.33;101144.13;25681285;23;20410;-65
2022/05/20 19:13:20;;;;;;;1.80;1.50;;;;;;;20.48;77.97;101156.97;25682160;23;20422;-65
2022/05/20 19:23:22;;;;;;;3.00;1.70;;;;;;;20.47;77.58;101174.19;25681907;23;20041;-65
2022/05/20 19:33:23;;;;;;;1.88;1.60;;;;;;;20.30;77.75;101163.09;25680411;23;20020;-65
2022/05/20 19:43:25;;;;;;;2.35;1.40;;;;;;;20.46;77.34;101202.22;25680478;23;20024;-64
2022/05/20 19:53:27;;;;;;;2.17;1.60;;;;;;;20.45;76.05;101197.81;25680440;23;20021;-65
2022/05/20 20:03:36;;;;;;;2.90;1.60;;;;;;;20.45;75.60;101222.16;25656118;23;20347;-65
2022/05/20 20:13:38;;;;;;;1.92;1.55;;;;;;;20.35;75.37;101216.75;25656596;23;20079;-65
2022/05/20 20:33:59;;;;;;;3.53;1.70;;;;;;;20.42;76.38;101271.97;25683327;23;20017;-65
2022/05/20 20:44:03;;;;;;;3.28;1.33;;;;;;;20.38;77.27;101290.34;25682358;23;20021;-64
2022/05/20 20:54:04;;;;;;;2.17;1.13;;;;;;;20.40;77.23;101309.97;25656180;23;20079;-64
2022/05/20 21:04:07;;;;;;;1.63;1.00;;;;;;;20.39;76.60;101326.34;25679090;23;20024;-65
2022/05/20 21:14:08;;;;;;;2.20;1.13;;;;;;;20.36;75.85;101332.91;25686000;23;20399;-64
2022/05/20 21:24:10;;;;;;;1.33;1.00;;;;;;;20.34;75.52;101340.31;25687210;23;20016;-64
2022/05/20 21:34:11;;;;;;;1.33;0.88;;;;;;;20.29;75.00;101354.22;25687814;23;20020;-64
2022/05/20 21:44:13;;;;;;;0.85;0.63;;;;;;;20.28;73.97;101384.09;25688793;23;20017;-65
2022/05/20 21:54:14;;;;;;;1.73;0.98;;;;;;;20.26;73.53;101386.09;25687028;23;20051;-65
2022/05/20 22:14:37;;;;;;;0.70;0.70;;;;;;;20.19;72.62;101409.28;25687049;23;20027;-65
2022/05/20 22:24:40;;;;;;;1.55;0.88;;;;;;;20.17;72.28;101419.38;25684126;23;20048;-65
2022/05/20 22:34:41;;;;;;;0.85;0.82;;;;;;;20.14;71.84;101407.84;25685610;23;20096;-65
2022/05/20 22:44:43;;;;;;;1.70;0.73;;;;;;;20.10;71.38;101424.47;25685402;23;20020;-64
2022/05/20 23:05:05;;;;;;;2.17;1.10;;;;;;;20.02;70.72;101425.19;25683953;23;20021;-65
2022/05/20 23:15:07;;;;;;;2.10;0.80;;;;;;;19.90;70.45;101401.94;25657862;23;20063;-65
2022/05/20 23:25:08;;;;;;;1.63;0.73;;;;;;;20.00;70.17;101424.47;25685017;23;20020;-65
2022/05/20 23:35:31;;;;;;;0.85;0.60;;;;;;;19.80;69.73;101401.88;25662007;23;20025;-65
2022/05/20 23:45:33;;;;;;;1.52;0.80;;;;;;;19.93;69.46;101420.59;25656813;23;20070;-64
